Time;durP1;ratioP1;P1;durP2;ratioP2;P2;SDS_P1;SDS_P2;PMS_P1;PMS_P2;Temp;Humidity;BMP_temperature;BMP_pressure;BME280_temperature;BME280_humidity;BME280_pressure;Samples;Min_cycle;Max_cycle;Signal;HPM_P1;HPM_P2
2023/07/09 00:02:06;;;;;;;1.58;1.58;;;25.80;99.90;;;26.31;79.48;101542.84;5052189;28;20060;-83
2023/07/09 00:04:34;;;;;;;1.70;1.70;;;25.80;99.90;;;26.36;79.41;101547.06;5053208;28;20087;-81
2023/07/09 00:07:05;;;;;;;1.50;1.50;;;25.80;99.90;;;26.39;78.46;101552.31;5053113;28;20083;-83
2023/07/09 00:09:34;;;;;;;1.38;1.38;;;25.80;99.90;;;26.35;77.92;101555.28;5053271;28;20432;-83
2023/07/09 00:12:03;;;;;;;1.60;1.60;;;25.80;99.90;;;26.32;77.36;101559.06;5049617;28;20098;-83
2023/07/09 00:14:32;;;;;;;1.40;1.40;;;25.80;99.90;;;26.30;77.68;101568.25;5053073;28;20048;-83
2023/07/09 00:17:01;;;;;;;1.48;1.48;;;25.80;99.90;;;26.19;78.63;101562.59;5053273;28;20057;-83
2023/07/09 00:19:30;;;;;;;1.33;1.33;;;25.70;99.90;;;26.25;78.54;101564.94;5052999;28;20081;-82
2023/07/09 00:21:58;;;;;;;1.40;1.40;;;25.70;99.90;;;26.23;78.72;101566.88;5052881;28;20048;-81
2023/07/09 00:24:26;;;;;;;1.50;1.50;;;25.70;99.90;;;26.18;79.46;101568.94;5053088;28;20103;-82
2023/07/09 00:26:55;;;;;;;1.30;1.30;;;25.70;99.90;;;26.13;79.52;101576.50;5052786;28;20139;-82
2023/07/09 00:29:23;;;;;;;1.55;1.55;;;25.60;99.90;;;26.06;79.58;101573.25;5052785;28;20080;-83
2023/07/09 00:31:53;;;;;;;2.95;2.45;;;25.50;99.90;;;25.94;80.18;101569.38;5053338;28;20049;-84
2023/07/09 00:34:24;;;;;;;1.60;1.60;;;25.40;99.90;;;25.88;80.63;101577.84;5047917;28;20041;-82
2023/07/09 00:36:53;;;;;;;1.52;1.52;;;25.30;99.90;;;25.97;78.46;101548.47;5051643;28;20087;-84
2023/07/09 00:39:23;;;;;;;1.50;1.50;;;25.50;99.90;;;26.16;73.87;101576.31;5052887;28;20150;-83
2023/07/09 00:41:52;;;;;;;2.03;1.92;;;25.50;99.90;;;26.29;72.51;101577.34;5052951;28;20044;-83
2023/07/09 00:44:31;;;;;;;1.58;1.58;;;25.70;99.90;;;26.48;73.39;101573.47;5052955;28;20119;-84
2023/07/09 00:47:29;;;;;;;1.58;1.58;;;25.90;99.90;;;26.38;75.77;101565.97;5051630;28;20140;-82
2023/07/09 00:50:10;;;;;;;1.63;1.63;;;25.90;99.90;;;26.36;76.04;101562.47;5049566;28;20048;-83
2023/07/09 00:52:51;;;;;;;1.40;1.40;;;25.90;99.90;;;26.25;77.01;101565.78;5053111;28;20041;-83
2023/07/09 00:55:27;;;;;;;1.50;1.50;;;25.70;99.90;;;26.38;73.58;101560.53;5048299;28;20235;-82
2023/07/09 00:58:00;;;;;;;1.60;1.60;;;25.80;99.90;;;26.30;75.24;101568.25;5051541;28;20048;-83
2023/07/09 01:00:35;;;;;;;1.70;1.70;;;25.70;99.90;;;26.22;75.14;101571.41;5052575;28;20394;-83
2023/07/09 01:03:08;;;;;;;1.60;1.60;;;25.60;99.90;;;26.16;75.69;101568.16;5048740;28;20051;-83
2023/07/09 01:05:37;;;;;;;1.50;1.50;;;25.60;99.90;;;26.19;75.33;101573.44;5053195;28;20056;-83
2023/07/09 01:08:09;;;;;;;1.70;1.70;;;25.60;99.90;;;26.22;73.99;101573.25;5056641;28;20045;-82
2023/07/09 01:10:40;;;;;;;1.65;1.65;;;25.70;99.90;;;26.30;73.00;101585.41;5056648;28;20053;-81
2023/07/09 01:13:09;;;;;;;1.70;1.70;;;25.70;99.90;;;26.37;72.34;101581.38;5057657;28;20135;-82
2023/07/09 01:15:38;;;;;;;1.60;1.60;;;25.80;99.90;;;26.36;72.16;101579.63;5054597;28;20127;-83
2023/07/09 01:18:09;;;;;;;1.50;1.50;;;25.90;99.90;;;26.31;72.88;101580.84;5069576;28;20493;-83
2023/07/09 01:20:40;;;;;;;1.92;1.83;;;25.80;99.90;;;26.13;72.88;101582.78;5056787;28;20041;-79
2023/07/09 01:23:10;;;;;;;1.70;1.70;;;25.70;99.90;;;26.11;73.31;101586.56;5053877;28;20049;-83
2023/07/09 01:25:44;;;;;;;1.52;1.52;;;25.60;99.90;;;26.17;73.17;101597.06;5055299;28;20543;-83
2023/07/09 01:28:17;;;;;;;1.65;1.65;;;25.70;99.90;;;26.15;73.08;101598.97;5056415;28;20072;-83
2023/07/09 01:30:46;;;;;;;1.35;1.35;;;25.60;99.90;;;26.21;73.14;101601.34;5053139;28;20052;-82
2023/07/09 01:33:14;;;;;;;1.60;1.60;;;25.70;99.90;;;26.20;73.13;101588.72;5055053;28;20049;-80
2023/07/09 01:35:42;;;;;;;1.40;1.40;;;25.70;99.90;;;26.24;73.26;101606.59;5053303;28;20072;-83
2023/07/09 01:38:12;;;;;;;1.40;1.40;;;25.70;99.90;;;26.24;73.95;101598.44;5056241;28;20049;-82
2023/07/09 01:40:41;;;;;;;1.40;1.40;;;25.70;99.90;;;26.24;74.46;101601.16;5055104;28;20085;-83
2023/07/09 01:43:10;;;;;;;1.50;1.50;;;25.70;99.90;;;26.20;74.78;101594.16;5054321;28;20379;-81
2023/07/09 01:45:38;;;;;;;1.40;1.40;;;25.70;99.90;;;26.20;75.53;101595.03;5055836;28;20072;-83
2023/07/09 01:48:15;;;;;;;1.50;1.50;;;25.70;99.90;;;26.18;77.20;101596.09;5056005;28;20102;-82
2023/07/09 01:50:45;;;;;;;1.67;1.67;;;25.70;99.90;;;26.22;77.51;101597.66;5053271;28;20478;-83
2023/07/09 01:53:17;;;;;;;1.90;1.80;;;25.60;99.90;;;26.20;78.21;101595.03;5055894;28;20056;-83
2023/07/09 01:55:45;;;;;;;1.38;1.38;;;25.60;99.90;;;26.22;77.49;101593.13;5055755;28;20053;-84
2023/07/09 01:58:16;;;;;;;1.70;1.70;;;25.70;99.90;;;26.21;77.67;101594.06;5054520;28;20079;-83
2023/07/09 02:00:44;;;;;;;;;;;25.70;99.90;;;26.20;78.21;101594.16;5054983;28;20053;-82
2023/07/09 02:03:13;;;;;;;1.52;1.52;;;25.60;99.90;;;26.22;78.24;101603.09;5051508;28;20395;-83
2023/07/09 02:05:43;;;;;;;1.60;1.60;;;25.70;99.90;;;26.28;77.68;101594.59;5071179;28;20051;-83
2023/07/09 02:08:11;;;;;;;1.58;1.58;;;25.70;99.90;;;26.31;77.31;101592.56;5055600;28;20041;-83
2023/07/09 02:10:41;;;;;;;1.70;1.70;;;25.70;99.90;;;26.33;77.11;101592.47;5055528;28;20099;-83
2023/07/09 02:13:09;;;;;;;1.50;1.50;;;25.70;99.90;;;26.31;77.25;101588.97;5054310;28;20048;-82
2023/07/09 02:15:37;;;;;;;1.80;1.80;;;25.70;99.90;;;26.28;78.62;101590.06;5052164;28;20132;-81
2023/07/09 02:18:06;;;;;;;1.58;1.58;;;25.70;99.90;;;26.16;78.81;101593.47;5069326;28;20489;-83
2023/07/09 02:20:36;;;;;;;1.58;1.58;;;25.70;99.90;;;25.96;79.49;101590.13;5053032;28;20135;-82
2023/07/09 02:23:06;;;;;;;1.60;1.60;;;25.50;99.90;;;25.82;79.61;101572.75;5054357;28;20049;-83
2023/07/09 02:25:34;;;;;;;3.72;3.40;;;25.30;99.90;;;26.03;78.86;101581.53;5050514;28;20044;-82
2023/07/09 02:28:04;;;;;;;1.60;1.60;;;25.40;99.90;;;26.10;78.53;101585.69;5053895;28;20045;-83
2023/07/09 02:30:33;;;;;;;1.70;1.70;;;25.50;99.90;;;26.13;78.15;101588.19;5054196;28;20048;-83
2023/07/09 02:33:01;;;;;;;1.42;1.42;;;25.50;99.90;;;26.06;77.11;101564.22;5053841;28;20071;-82
2023/07/09 02:35:30;;;;;;;1.65;1.65;;;25.60;99.90;;;26.08;77.31;101584.00;5053799;28;20071;-83
2023/07/09 02:37:58;;;;;;;1.60;1.60;;;25.60;99.90;;;26.07;77.30;101576.84;5054054;28;20098;-82
2023/07/09 02:40:27;;;;;;;1.65;1.65;;;25.50;99.90;;;26.06;77.73;101575.06;5054231;28;20126;-82
2023/07/09 02:42:55;;;;;;;1.40;1.40;;;25.60;99.90;;;26.04;78.90;101590.53;5052678;28;20045;-82
2023/07/09 02:45:25;;;;;;;1.70;1.70;;;25.50;99.90;;;25.96;78.88;101595.53;5052609;28;20490;-82
2023/07/09 02:47:53;;;;;;;1.70;1.70;;;25.40;99.90;;;26.02;77.96;101598.75;5065347;28;20144;-82
2023/07/09 02:50:23;;;;;;;1.77;1.77;;;25.50;99.90;;;25.94;77.91;101601.03;5046272;28;20056;-83
2023/07/09 02:52:51;;;;;;;1.58;1.58;;;25.40;99.90;;;25.81;78.95;101608.09;5053729;28;20037;-82
2023/07/09 02:55:19;;;;;;;1.40;1.40;;;25.30;99.90;;;25.70;79.15;101587.03;5054037;28;20049;-82
2023/07/09 02:57:48;;;;;;;1.70;1.70;;;25.30;99.90;;;25.75;80.46;101603.03;5050605;28;20049;-82
2023/07/09 03:00:17;;;;;;;1.55;1.55;;;25.20;99.90;;;25.72;81.36;101605.91;5053615;28;20081;-82
2023/07/09 03:02:47;;;;;;;1.52;1.52;;;25.20;99.90;;;25.70;82.00;101611.44;5052406;28;20053;-82
2023/07/09 03:05:16;;;;;;;1.50;1.50;;;25.10;99.90;;;25.61;81.94;101609.19;5052080;28;20103;-81
2023/07/09 03:07:44;;;;;;;1.83;1.80;;;25.00;99.90;;;25.57;82.29;101606.75;5053588;28;20124;-82
2023/07/09 03:10:13;;;;;;;1.70;1.70;;;25.00;99.90;;;25.56;82.98;101605.88;5052123;28;20049;-83
2023/07/09 03:12:41;;;;;;;1.33;1.33;;;25.00;99.90;;;25.52;83.15;101601.59;5049737;28;20049;-79
2023/07/09 03:15:10;;;;;;;1.52;1.52;;;25.00;99.90;;;25.51;83.71;101596.25;5015950;28;1077397;-82
2023/07/09 03:17:38;;;;;;;1.50;1.50;;;25.00;99.90;;;25.50;83.91;101600.78;5054098;28;20041;-83
2023/07/09 03:20:10;;;;;;;1.60;1.60;;;25.00;99.90;;;25.58;82.95;101601.25;5053480;28;20067;-81
2023/07/09 03:22:38;;;;;;;1.70;1.70;;;25.00;99.90;;;25.59;82.64;101596.72;5053254;28;20171;-82
2023/07/09 03:25:08;;;;;;;1.60;1.60;;;25.00;99.90;;;25.75;81.31;101598.47;5054168;28;20053;-83
2023/07/09 03:27:36;;;;;;;1.73;1.73;;;25.20;99.90;;;25.83;80.24;101598.06;5052860;28;20747;-83
2023/07/09 03:30:06;;;;;;;1.92;1.90;;;25.30;99.90;;;25.87;80.42;101599.63;5053139;28;20498;-82
2023/07/09 03:32:34;;;;;;;1.55;1.55;;;25.30;99.90;;;25.84;80.23;101606.09;5048943;28;20074;-83
2023/07/09 03:35:03;;;;;;;1.60;1.60;;;25.30;99.90;;;25.69;79.66;101598.81;5050682;28;20048;-81
2023/07/09 03:37:33;;;;;;;1.92;1.88;;;25.30;99.90;;;25.75;79.41;101612.03;5052679;28;20049;-83
2023/07/09 03:40:01;;;;;;;2.30;2.20;;;25.20;99.90;;;25.75;79.38;101612.03;5053912;28;20403;-82
2023/07/09 03:42:32;;;;;;;1.63;1.63;;;25.20;99.90;;;25.45;81.33;101610.13;5053726;28;20041;-82
2023/07/09 03:45:00;;;;;;;1.42;1.42;;;25.00;99.90;;;24.53;80.66;101598.69;5053380;28;20120;-82
2023/07/09 03:47:28;;;;;;;1.98;1.92;;;24.40;99.90;;;24.47;82.56;101626.06;5053538;28;20098;-79
2023/07/09 03:49:57;;;;;;;2.08;1.98;;;24.00;99.90;;;24.45;82.55;101622.56;5053750;28;20057;-83
2023/07/09 03:52:25;;;;;;;2.05;1.95;;;24.00;99.90;;;24.09;84.85;101601.78;5053466;28;20052;-82
2023/07/09 03:54:56;;;;;;;1.85;1.80;;;23.70;99.90;;;24.21;84.92;101608.44;5054789;28;20068;-83
2023/07/09 03:57:24;;;;;;;;;;;23.70;99.90;;;24.08;86.66;101613.53;5051986;28;20048;-81
2023/07/09 03:59:52;;;;;;;2.70;2.60;;;23.60;99.90;;;24.16;87.59;101618.56;5053576;28;19964;-83
2023/07/09 04:02:21;;;;;;;2.10;2.00;;;23.60;99.90;;;24.40;86.41;101614.69;5053949;28;20048;-83
2023/07/09 04:04:49;;;;;;;1.90;1.80;;;23.80;99.90;;;24.50;86.31;101607.88;5053525;28;20041;-83
2023/07/09 04:07:18;;;;;;;2.20;2.10;;;24.00;99.90;;;24.44;88.09;101604.56;5053924;28;20055;-83
2023/07/09 04:09:48;;;;;;;1.90;1.80;;;23.90;99.90;;;24.51;87.65;101606.91;5053898;28;20069;-83
2023/07/09 04:12:18;;;;;;;1.85;1.80;;;24.00;99.90;;;24.40;88.16;101605.69;5056284;28;20504;-82
2023/07/09 04:14:46;;;;;;;1.67;1.67;;;23.90;99.90;;;24.45;88.26;101609.91;5057268;28;20589;-81
2023/07/09 04:17:14;;;;;;;2.13;2.03;;;23.90;99.90;;;24.74;87.75;101605.75;5060710;28;20306;-83
2023/07/09 04:19:43;;;;;;;2.00;1.90;;;24.20;99.90;;;24.79;86.44;101609.13;5051812;28;20387;-83
2023/07/09 04:22:12;;;;;;;2.08;1.98;;;24.30;99.90;;;24.65;85.99;101608.91;5053108;28;20079;-83
2023/07/09 04:24:40;;;;;;;2.10;2.00;;;24.10;99.90;;;24.72;85.87;101613.97;5053001;28;20048;-83
2023/07/09 04:27:09;;;;;;;1.60;1.60;;;24.20;99.90;;;24.73;85.77;101613.03;5053119;28;20036;-83
2023/07/09 04:29:39;;;;;;;1.70;1.70;;;24.20;99.90;;;24.77;85.14;101624.56;5054009;28;20514;-83
2023/07/09 04:32:08;;;;;;;1.98;1.88;;;24.30;99.90;;;24.75;85.48;101624.66;5052891;28;20445;-82
2023/07/09 04:34:38;;;;;;;1.77;1.77;;;24.30;99.90;;;24.79;84.83;101623.53;5051874;28;20449;-84
2023/07/09 04:37:08;;;;;;;1.77;1.77;;;24.30;99.90;;;24.81;84.74;101618.91;5052754;28;20045;-84
2023/07/09 04:39:37;;;;;;;2.33;2.22;;;24.30;99.90;;;24.72;84.53;101615.78;5052999;28;20045;-83
2023/07/09 04:42:07;;;;;;;2.13;2.03;;;24.20;99.90;;;24.77;84.45;101628.16;5052774;28;20060;-83
2023/07/09 04:44:35;;;;;;;1.60;1.60;;;24.30;99.90;;;24.87;83.78;101624.00;5053511;28;20045;-84
2023/07/09 04:47:07;;;;;;;3.58;3.38;;;24.40;99.90;;;24.81;83.51;101623.44;5052623;28;20498;-84
2023/07/09 04:49:36;;;;;;;1.88;1.85;;;24.30;99.90;;;24.82;83.63;101630.59;5052924;28;20041;-83
2023/07/09 04:52:05;;;;;;;3.28;2.50;;;24.30;99.90;;;24.87;84.19;101632.09;5053383;28;20083;-82
2023/07/09 04:54:34;;;;;;;5.47;3.25;;;24.30;99.90;;;25.03;83.95;101645.75;5052612;28;20453;-82
2023/07/09 04:57:03;;;;;;;1.70;1.70;;;24.40;99.90;;;25.03;83.24;101640.31;5052546;28;20045;-84
2023/07/09 04:59:32;;;;;;;1.88;1.85;;;24.50;99.90;;;24.94;83.44;101641.69;5048744;28;20044;-83
2023/07/09 05:02:00;;;;;;;2.42;2.33;;;24.40;99.90;;;24.88;83.09;101652.84;5051374;28;20049;-83
2023/07/09 05:04:30;;;;;;;3.05;2.90;;;24.40;99.90;;;24.68;83.93;101654.78;5052690;28;20138;-83
2023/07/09 05:06:59;;;;;;;4.32;4.03;;;24.20;99.90;;;24.73;83.64;101652.72;5052599;28;20451;-83
2023/07/09 05:09:27;;;;;;;9.93;3.33;;;24.20;99.90;;;24.59;83.60;101656.09;5052584;28;20041;-83
2023/07/09 05:11:56;;;;;;;1.67;1.67;;;24.10;99.90;;;24.86;82.83;101651.16;5053170;28;20045;-82
2023/07/09 05:14:24;;;;;;;2.38;2.28;;;24.30;99.90;;;25.03;81.83;101652.03;5052778;28;20095;-83
2023/07/09 05:16:53;;;;;;;1.95;1.85;;;24.50;99.90;;;25.23;80.85;101648.28;5053069;28;20457;-82
2023/07/09 05:19:21;;;;;;;2.42;2.33;;;24.80;99.90;;;25.21;79.69;101655.63;5053393;28;20465;-82
2023/07/09 05:21:51;;;;;;;3.03;2.90;;;24.80;99.90;;;25.35;79.67;101641.34;5052223;28;20045;-83
2023/07/09 05:24:19;;;;;;;3.20;2.90;;;24.80;99.90;;;25.50;79.14;101644.16;5048830;28;20402;-84
2023/07/09 05:26:47;;;;;;;2.67;2.58;;;25.00;99.90;;;25.60;78.41;101641.81;5052326;28;20072;-85
2023/07/09 05:29:16;;;;;;;1.75;1.75;;;25.10;99.90;;;25.67;77.66;101643.22;5052953;28;20076;-85
2023/07/09 05:31:44;;;;;;;2.20;2.10;;;25.20;99.90;;;25.64;77.72;101637.97;5052439;28;20045;-85
2023/07/09 05:34:12;;;;;;;2.80;2.70;;;25.20;99.90;;;25.68;78.12;101632.31;5052448;28;20049;-85
2023/07/09 05:36:41;;;;;;;2.05;1.95;;;25.20;99.90;;;25.76;77.35;101635.47;5052557;28;20072;-84
2023/07/09 05:39:10;;;;;;;2.35;2.25;;;25.30;99.90;;;25.59;78.72;101638.22;5052249;28;20041;-85
2023/07/09 05:41:39;;;;;;;1.70;1.70;;;25.20;99.90;;;25.41;78.09;101636.53;5052616;28;20044;-83
2023/07/09 05:44:07;;;;;;;2.45;2.35;;;25.00;99.90;;;25.69;77.72;101630.47;5052592;28;20059;-82
2023/07/09 05:46:37;;;;;;;1.63;1.63;;;25.20;99.90;;;25.76;76.24;101631.91;5052100;28;20456;-85
2023/07/09 05:49:07;;;;;;;2.33;2.23;;;25.30;99.90;;;25.63;75.88;101633.50;5067834;28;20374;-84
2023/07/09 05:51:36;;;;;;;2.25;2.08;;;25.20;99.90;;;25.78;74.76;101636.25;5052123;28;20044;-84
2023/07/09 05:54:04;;;;;;;6.63;5.30;;;25.30;99.90;;;25.65;74.16;101637.88;5055239;28;20098;-84
2023/07/09 05:56:34;;;;;;;3.85;3.53;;;25.20;99.90;;;25.45;75.33;101635.41;5055673;28;20085;-83
2023/07/09 05:59:03;;;;;;;2.58;2.47;;;25.00;99.90;;;25.42;75.50;101646.38;5055522;28;20045;-84
2023/07/09 06:01:32;;;;;;;2.05;1.95;;;24.90;99.90;;;25.50;75.83;101640.56;5055663;28;20048;-84
2023/07/09 06:04:00;;;;;;;1.70;1.70;;;25.00;99.90;;;25.52;75.73;101650.38;5054463;28;20037;-83
2023/07/09 06:06:29;;;;;;;1.83;1.80;;;25.10;99.90;;;25.54;74.72;101658.41;5055992;28;20049;-85
2023/07/09 06:08:57;;;;;;;5.30;4.22;;;25.00;99.90;;;25.43;73.96;101655.41;5051616;28;20452;-83
2023/07/09 06:11:25;;;;;;;8.13;4.22;;;25.00;99.90;;;25.43;72.96;101653.56;5055333;28;20044;-83
2023/07/09 06:13:55;;;;;;;5.50;4.05;;;24.90;99.90;;;25.67;71.43;101648.66;5055612;28;20048;-84
2023/07/09 06:16:24;;;;;;;2.63;2.53;;;25.10;99.90;;;25.63;71.74;101647.06;5054994;28;20048;-84
2023/07/09 06:18:52;;;;;;;3.13;2.90;;;25.20;99.90;;;25.57;71.27;101650.97;5055081;28;20049;-84
2023/07/09 06:21:20;;;;;;;2.80;2.67;;;25.10;99.90;;;25.68;70.64;101661.25;5055622;28;20089;-83
2023/07/09 06:23:49;;;;;;;2.35;2.25;;;25.20;99.90;;;25.59;69.28;101676.16;5055059;28;20076;-85
2023/07/09 06:26:17;;;;;;;1.70;1.70;;;25.10;99.90;;;25.73;69.27;101670.00;5055291;28;20076;-83
2023/07/09 06:28:45;;;;;;;2.13;2.03;;;25.20;99.90;;;25.85;66.48;101670.22;5054995;28;20052;-84
2023/07/09 06:31:15;;;;;;;1.65;1.65;;;25.40;99.90;;;25.96;65.89;101676.91;5055227;28;20367;-83
2023/07/09 06:33:44;;;;;;;3.15;2.95;;;25.50;99.90;;;25.98;66.06;101681.25;5054861;28;20041;-84
2023/07/09 06:36:12;;;;;;;1.70;1.70;;;25.50;99.90;;;25.95;65.28;101686.84;5055094;28;20069;-84
2023/07/09 06:38:40;;;;;;;4.18;2.83;;;25.50;99.90;;;26.00;64.48;101690.19;5054662;28;20391;-71
2023/07/09 06:41:09;;;;;;;2.10;2.00;;;25.50;99.90;;;26.06;65.11;101697.13;5054729;28;20060;-71
2023/07/09 06:43:38;;;;;;;1.60;1.60;;;25.60;99.90;;;26.06;64.92;101694.41;5054711;28;20033;-72
2023/07/09 06:46:10;;;;;;;2.00;1.90;;;25.60;99.90;;;25.69;63.33;101604.25;5054578;28;20052;-72
2023/07/09 06:48:41;;;;;;;2.08;1.98;;;25.80;99.90;;;26.43;62.56;101705.84;5055175;28;20465;-72
2023/07/09 06:51:14;;;;;;;2.03;1.92;;;26.00;99.90;;;26.49;61.75;101704.63;5054768;28;20091;-74
2023/07/09 06:53:50;;;;;;;2.28;2.17;;;26.10;99.90;;;26.54;61.34;101697.97;5053536;28;20482;-74
2023/07/09 06:56:26;;;;;;;1.58;1.58;;;26.20;99.90;;;26.69;60.29;101701.66;5054509;28;20449;-73
2023/07/09 06:58:58;;;;;;;1.63;1.63;;;26.40;99.90;;;26.78;58.55;101701.13;5050609;28;20040;-72
2023/07/09 07:01:26;;;;;;;1.95;1.90;;;26.40;99.90;;;26.85;58.31;101710.66;5050975;28;20128;-71
2023/07/09 07:03:56;;;;;;;1.77;1.77;;;26.50;99.90;;;26.96;57.82;101715.47;5053974;28;20045;-75
2023/07/09 07:06:24;;;;;;;1.98;1.88;;;26.60;99.90;;;26.93;57.99;101683.06;5054684;28;20131;-73
2023/07/09 07:08:53;;;;;;;1.60;1.60;;;26.70;99.90;;;27.25;57.79;101701.91;5055373;28;20052;-74
2023/07/09 07:11:22;;;;;;;1.50;1.50;;;26.90;99.90;;;27.37;57.86;101705.78;5054368;28;20387;-71
2023/07/09 07:13:51;;;;;;;1.45;1.45;;;27.00;99.90;;;27.50;56.90;101702.22;5053272;28;20052;-73
2023/07/09 07:16:20;;;;;;;1.40;1.40;;;27.20;99.90;;;27.57;56.68;101697.25;5053941;28;20057;-73
2023/07/09 07:18:48;;;;;;;1.50;1.50;;;27.30;99.90;;;27.76;56.77;101697.84;5053881;28;20517;-73
2023/07/09 07:21:18;;;;;;;1.60;1.60;;;27.40;99.90;;;27.90;56.55;101694.25;5054089;28;20091;-74
2023/07/09 07:23:46;;;;;;;1.50;1.50;;;27.60;99.90;;;28.00;56.45;101692.75;5050490;28;20036;-74
2023/07/09 07:26:15;;;;;;;1.35;1.33;;;27.70;99.90;;;28.09;56.99;101684.00;5053850;28;20068;-71
2023/07/09 07:28:43;;;;;;;1.30;1.30;;;27.80;99.90;;;28.26;56.71;101691.97;5053839;28;20049;-73
2023/07/09 07:31:12;;;;;;;1.45;1.45;;;28.00;99.90;;;28.36;56.57;101688.53;5053610;28;20068;-71
2023/07/09 07:33:42;;;;;;;1.40;1.40;;;28.00;99.90;;;28.42;57.08;101692.69;5053464;28;20585;-72
2023/07/09 07:36:10;;;;;;;1.75;1.70;;;28.10;99.90;;;28.36;57.13;101684.91;5052426;28;20092;-73
2023/07/09 07:38:43;;;;;;;1.40;1.40;;;28.10;99.90;;;28.49;56.99;101684.03;5053855;28;20103;-73
2023/07/09 07:41:11;;;;;;;1.33;1.33;;;28.20;99.90;;;28.56;57.51;101687.25;5053790;28;20505;-71
2023/07/09 07:43:40;;;;;;;1.40;1.40;;;28.20;99.90;;;28.66;58.16;101691.13;5050070;28;20049;-73
2023/07/09 07:46:08;;;;;;;1.30;1.30;;;28.30;99.90;;;28.75;57.20;101695.06;5053475;28;20118;-73
2023/07/09 07:48:37;;;;;;;1.20;1.20;;;28.40;99.90;;;28.86;57.56;101696.09;5050019;28;20411;-70
2023/07/09 07:51:05;;;;;;;1.20;1.20;;;28.50;99.90;;;28.93;56.32;101696.56;5053298;28;20046;-74
2023/07/09 07:53:34;;;;;;;1.23;1.23;;;28.60;99.90;;;28.97;56.25;101701.72;5053302;28;20119;-72
2023/07/09 07:56:04;;;;;;;2.17;1.58;;;28.70;99.90;;;28.93;55.63;101697.44;5053518;28;20095;-76
2023/07/09 07:58:33;;;;;;;1.10;1.10;;;28.70;99.90;;;28.95;55.06;101702.78;5053237;28;20132;-71
2023/07/09 08:01:01;;;;;;;1.00;1.00;;;28.60;99.90;;;29.01;55.58;101696.91;5053029;28;20041;-73
2023/07/09 08:03:31;;;;;;;7.95;3.42;;;28.70;99.90;;;29.01;55.56;101699.66;5053062;28;20041;-72
2023/07/09 08:05:59;;;;;;;1.38;1.38;;;28.70;99.90;;;29.05;55.11;101703.91;5049164;28;20041;-71
2023/07/09 08:08:30;;;;;;;1.52;1.52;;;28.70;99.90;;;29.12;54.58;101697.06;5053158;28;20095;-71
2023/07/09 08:11:06;;;;;;;1.20;1.20;;;28.80;99.90;;;29.12;54.72;101703.38;5052913;28;20547;-72
2023/07/09 08:13:35;;;;;;;1.50;1.50;;;28.90;99.90;;;29.19;54.38;101707.47;5053587;28;20072;-74
2023/07/09 08:16:04;;;;;;;1.20;1.20;;;28.90;99.90;;;29.20;54.81;101701.06;5052838;28;20057;-79
2023/07/09 08:18:33;;;;;;;1.23;1.23;;;29.00;99.90;;;29.25;54.96;101700.72;5052889;28;20087;-79
2023/07/09 08:21:03;;;;;;;1.13;1.13;;;29.00;99.90;;;29.30;55.11;101710.34;5049019;28;20045;-76
2023/07/09 08:23:31;;;;;;;1.10;1.10;;;29.00;99.90;;;29.39;54.84;101723.34;5049204;28;20123;-78
2023/07/09 08:26:04;;;;;;;1.17;1.17;;;29.10;99.90;;;29.48;54.40;101729.13;5052585;28;20498;-73
2023/07/09 08:28:34;;;;;;;0.90;0.90;;;29.20;99.90;;;29.31;55.19;101720.25;5052695;28;20037;-75
2023/07/09 08:31:03;;;;;;;1.58;1.48;;;29.00;99.90;;;29.39;54.47;101706.09;5052960;28;20080;-84
2023/07/09 08:33:32;;;;;;;1.23;1.23;;;29.00;99.90;;;29.31;54.36;101709.34;5052657;28;20094;-82
2023/07/09 08:36:00;;;;;;;1.95;1.85;;;29.00;99.90;;;29.31;54.50;101712.09;5052479;28;20402;-72
2023/07/09 08:38:30;;;;;;;1.30;1.30;;;29.10;99.90;;;29.46;54.32;101720.19;5052663;28;20051;-71
2023/07/09 08:41:02;;;;;;;1.10;1.10;;;29.20;99.90;;;29.45;54.49;101722.03;5048963;28;20091;-79
2023/07/09 08:43:51;;;;;;;2.28;2.17;;;29.20;99.90;;;29.49;53.87;101712.66;5052575;28;20044;-79
2023/07/09 08:46:33;;;;;;;1.10;1.10;;;29.20;99.90;;;29.59;54.34;101705.59;5049549;28;20075;-83
2023/07/09 08:49:03;;;;;;;1.23;1.23;;;29.30;99.90;;;29.40;54.14;101713.31;5052535;28;20053;-72
2023/07/09 08:51:39;;;;;;;1.23;1.23;;;29.20;99.90;;;29.51;53.81;101709.81;5052453;28;20140;-78
2023/07/09 08:54:16;;;;;;;1.20;1.20;;;29.30;99.90;;;29.72;53.61;101727.44;5049000;28;20402;-72
2023/07/09 08:56:45;;;;;;;1.15;1.15;;;29.40;99.90;;;29.67;52.75;101735.06;5051677;28;20101;-73
2023/07/09 08:59:19;;;;;;;1.23;1.23;;;29.40;99.90;;;29.39;54.43;101727.91;5051101;28;20052;-73
2023/07/09 09:01:52;;;;;;;1.50;1.50;;;29.10;99.90;;;29.29;54.49;101714.03;5051511;28;20049;-72
2023/07/09 09:04:26;;;;;;;1.10;1.10;;;29.00;99.90;;;29.46;55.41;101704.72;5048147;28;20077;-73
2023/07/09 09:07:07;;;;;;;1.40;1.40;;;29.10;99.90;;;29.73;54.96;101702.81;5051578;28;20044;-73
2023/07/09 09:09:41;;;;;;;1.10;1.10;;;29.40;99.90;;;29.96;54.74;101703.88;5047953;28;20049;-73
2023/07/09 09:12:17;;;;;;;1.63;1.52;;;29.60;99.90;;;29.95;53.84;101707.56;5048250;28;20053;-74
2023/07/09 09:14:55;;;;;;;1.20;1.20;;;29.70;99.90;;;30.05;53.93;101717.72;5050445;28;20052;-73
2023/07/09 09:17:28;;;;;;;1.23;1.23;;;29.80;99.90;;;29.12;53.96;101605.25;5047753;28;20081;-71
2023/07/09 09:20:00;;;;;;;1.05;1.05;;;29.60;99.90;;;29.84;53.88;101699.28;5051186;28;20055;-73
2023/07/09 09:22:34;;;;;;;1.30;1.30;;;29.60;99.90;;;30.03;54.66;101705.16;5051890;28;20045;-72
2023/07/09 09:25:17;;;;;;;2.08;1.63;;;29.70;99.90;;;30.04;53.72;101706.94;5052052;28;20041;-70
2023/07/09 09:27:46;;;;;;;1.25;1.25;;;29.80;99.90;;;30.19;53.77;101712.16;5051482;28;20479;-72
2023/07/09 09:30:23;;;;;;;1.38;1.38;;;29.90;99.90;;;30.36;53.14;101719.13;5056382;28;20405;-69
2023/07/09 09:32:56;;;;;;;1.13;1.13;;;30.00;99.90;;;30.38;52.42;101727.22;5054938;28;20075;-70
2023/07/09 09:35:30;;;;;;;1.02;1.02;;;30.10;99.90;;;30.49;52.04;101738.25;5052569;28;20075;-70
2023/07/09 09:37:59;;;;;;;1.13;1.13;;;30.20;99.90;;;30.05;52.01;101632.22;5054819;28;20052;-68
2023/07/09 09:40:35;;;;;;;1.13;1.13;;;30.30;99.90;;;30.80;52.18;101741.28;5056067;28;20041;-71
2023/07/09 09:43:06;;;;;;;1.00;1.00;;;30.50;99.90;;;30.86;52.07;101740.88;5055664;28;20051;-72
2023/07/09 09:45:39;;;;;;;1.20;1.20;;;30.60;99.90;;;30.94;50.77;101738.44;5051814;28;20083;-74
2023/07/09 09:48:16;;;;;;;1.23;1.23;;;30.70;99.90;;;30.94;49.68;101732.09;5055628;28;20045;-69
2023/07/09 09:50:47;;;;;;;0.90;0.90;;;30.70;99.90;;;30.73;51.08;101722.75;5055669;28;20063;-70
2023/07/09 09:53:23;;;;;;;1.10;1.10;;;30.40;99.90;;;30.80;50.92;101713.97;5056196;28;20044;-70
2023/07/09 09:55:53;;;;;;;0.90;0.90;;;30.60;99.90;;;31.04;50.99;101730.41;5052885;28;20515;-69
2023/07/09 09:58:29;;;;;;;1.02;1.02;;;30.70;99.90;;;31.11;50.23;101716.16;5055746;28;20069;-72
2023/07/09 10:01:00;;;;;;;1.00;1.00;;;30.90;99.90;;;31.23;50.39;101716.19;5055530;28;20103;-69
2023/07/09 10:03:40;;;;;;;0.90;0.90;;;31.00;99.90;;;31.39;49.36;101723.13;5050483;28;20049;-74
2023/07/09 10:06:16;;;;;;;0.80;0.80;;;31.10;99.90;;;31.49;48.75;101723.28;5054566;28;20045;-76
2023/07/09 10:08:56;;;;;;;0.90;0.90;;;31.30;99.90;;;31.55;48.32;101720.06;5055757;28;20044;-73
2023/07/09 10:11:36;;;;;;;1.08;1.08;;;31.30;99.90;;;31.67;48.40;101711.75;5052440;28;20049;-70
2023/07/09 10:14:29;;;;;;;0.90;0.90;;;31.40;99.90;;;31.73;48.62;101721.34;5055151;28;20041;-68
2023/07/09 10:17:06;;;;;;;0.93;0.93;;;31.50;99.90;;;31.76;48.36;101721.13;5053926;28;20380;-75
2023/07/09 10:19:47;;;;;;;1.42;1.42;;;31.50;99.90;;;31.73;48.01;101733.16;5051378;28;20088;-77
2023/07/09 10:22:35;;;;;;;0.70;0.70;;;31.50;99.90;;;31.51;47.54;101755.03;5055308;28;20047;-74
2023/07/09 10:25:14;;;;;;;1.10;1.10;;;31.20;99.90;;;31.52;47.92;101764.06;5052428;28;20051;-70
2023/07/09 10:28:02;;;;;;;0.90;0.90;;;31.20;99.90;;;31.55;48.08;101764.69;5053902;28;20080;-74